createdAt,value
2018-03-25T00:01:49.883Z,2.40
2018-03-25T00:04:25.360Z,2.40
2018-03-25T00:07:00.788Z,2.30
2018-03-25T00:09:36.054Z,2.60
2018-03-25T00:12:12.075Z,2.30
2018-03-25T00:14:48.091Z,2.20
2018-03-25T00:17:23.449Z,2.20
2018-03-25T00:19:59.568Z,2.20
2018-03-25T00:22:34.819Z,2.10
2018-03-25T00:25:10.229Z,2.10
2018-03-25T00:27:45.505Z,2.10
2018-03-25T00:30:21.560Z,2.10
2018-03-25T00:32:56.643Z,2.10
2018-03-25T00:35:31.964Z,2.10
2018-03-25T00:38:07.152Z,2.00
2018-03-25T00:40:42.570Z,2.00
2018-03-25T00:43:18.476Z,2.00
2018-03-25T00:45:53.658Z,2.00
2018-03-25T00:48:29.061Z,2.10
2018-03-25T00:51:04.418Z,2.00
2018-03-25T00:53:39.610Z,2.00
2018-03-25T00:56:14.871Z,2.00
2018-03-25T00:58:50.151Z,2.00
2018-03-25T01:01:26.272Z,1.80
2018-03-25T01:04:02.298Z,1.70
2018-03-25T01:06:37.599Z,1.70
2018-03-25T01:09:12.882Z,1.70
2018-03-25T01:11:48.199Z,1.60
2018-03-25T01:14:23.631Z,1.50
2018-03-25T01:16:58.850Z,1.50
2018-03-25T01:19:34.236Z,1.50
2018-03-25T01:22:09.577Z,1.50
2018-03-25T01:24:45.700Z,1.50
2018-03-25T01:27:21.844Z,1.50
2018-03-25T01:29:57.121Z,1.40
2018-03-25T01:32:32.513Z,1.50
2018-03-25T01:35:07.774Z,1.50
2018-03-25T01:37:42.948Z,1.50
2018-03-25T01:40:18.358Z,1.50
2018-03-25T01:42:53.515Z,1.50
2018-03-25T01:45:28.831Z,1.50
2018-03-25T01:48:04.075Z,1.40
2018-03-25T01:50:39.452Z,1.40
2018-03-25T01:53:15.395Z,1.40
2018-03-25T01:55:50.780Z,1.40
2018-03-25T01:58:26.035Z,1.40
2018-03-25T02:01:01.386Z,1.30
2018-03-25T02:03:36.723Z,1.20
2018-03-25T02:06:12.016Z,1.20
2018-03-25T02:08:47.324Z,1.20
2018-03-25T02:11:22.745Z,1.20
2018-03-25T02:13:58.093Z,1.20
2018-03-25T02:16:34.112Z,1.10
2018-03-25T02:19:09.475Z,1.10
2018-03-25T02:21:44.639Z,1.10
2018-03-25T02:24:20.179Z,1.00
2018-03-25T02:26:56.261Z,1.10
2018-03-25T02:29:32.171Z,1.00
2018-03-25T02:32:07.461Z,0.90
2018-03-25T02:34:43.122Z,0.90
2018-03-25T02:37:18.378Z,0.90
2018-03-25T02:39:53.721Z,0.90
2018-03-25T02:42:29.011Z,0.90
2018-03-25T02:45:04.359Z,0.80
2018-03-25T02:47:39.711Z,0.80
2018-03-25T02:50:15.092Z,0.80
2018-03-25T02:52:50.359Z,0.80
2018-03-25T02:55:25.609Z,0.80
2018-03-25T02:58:00.918Z,0.80
2018-03-25T03:00:36.296Z,0.80
2018-03-25T03:03:11.624Z,0.80
2018-03-25T03:05:46.933Z,0.70
2018-03-25T03:08:22.095Z,0.70
2018-03-25T03:10:57.455Z,0.70
2018-03-25T03:13:32.729Z,0.70
2018-03-25T03:16:08.218Z,0.70
2018-03-25T03:18:43.453Z,0.60
2018-03-25T03:21:18.568Z,0.60
2018-03-25T03:23:53.659Z,0.60
2018-03-25T03:26:28.991Z,0.60
2018-03-25T03:29:05.249Z,0.50
2018-03-25T03:31:41.366Z,0.50
2018-03-25T03:34:16.511Z,0.50
2018-03-25T03:36:51.896Z,0.50
2018-03-25T03:39:27.251Z,0.40
2018-03-25T03:42:02.567Z,0.40
2018-03-25T03:44:37.826Z,0.50
2018-03-25T03:47:13.134Z,0.50
2018-03-25T03:49:48.475Z,0.40
2018-03-25T03:52:23.677Z,0.40
2018-03-25T03:54:58.990Z,0.40
2018-03-25T03:57:34.299Z,0.40
2018-03-25T04:00:09.578Z,0.40
2018-03-25T04:02:44.853Z,0.30
2018-03-25T04:05:20.281Z,0.30
2018-03-25T04:07:56.182Z,0.10
2018-03-25T04:10:32.147Z,0.10
2018-03-25T04:13:07.404Z,0.00
2018-03-25T04:15:43.045Z,0.10
2018-03-25T04:18:18.347Z,0.10
2018-03-25T04:20:53.642Z,0.10
2018-03-25T04:23:28.915Z,0.10
2018-03-25T04:26:04.250Z,0.10
2018-03-25T04:28:39.508Z,0.00
2018-03-25T04:31:14.813Z,0.00
2018-03-25T04:33:49.995Z,0.00
2018-03-25T04:36:26.502Z,-0.10
2018-03-25T04:39:02.010Z,-0.10
2018-03-25T04:41:37.297Z,-0.10
2018-03-25T04:44:12.666Z,-0.10
2018-03-25T04:46:48.249Z,-0.10
2018-03-25T04:49:23.397Z,-0.10
2018-03-25T04:51:58.765Z,-0.10
2018-03-25T04:54:34.078Z,0.00
2018-03-25T04:57:09.411Z,0.00
2018-03-25T04:59:44.686Z,0.00
2018-03-25T05:02:20.024Z,0.00
2018-03-25T05:04:55.302Z,0.00
2018-03-25T05:07:30.481Z,0.00
2018-03-25T05:10:06.534Z,-0.10
2018-03-25T05:12:41.881Z,-0.10
2018-03-25T05:15:17.226Z,-0.10
2018-03-25T05:17:52.575Z,-0.10
2018-03-25T05:20:27.966Z,-0.10
2018-03-25T05:23:03.208Z,-0.10
2018-03-25T05:25:38.485Z,-0.10
2018-03-25T05:28:13.840Z,-0.20
2018-03-25T05:30:49.801Z,-0.10
2018-03-25T05:33:25.037Z,-0.10
2018-03-25T05:36:00.310Z,-0.10
2018-03-25T05:38:35.599Z,0.00
2018-03-25T05:41:10.832Z,0.00
2018-03-25T05:43:46.889Z,0.00
2018-03-25T05:46:22.082Z,0.00
2018-03-25T05:48:57.390Z,0.10
2018-03-25T05:51:32.632Z,0.10
2018-03-25T05:54:07.907Z,0.10
2018-03-25T05:56:43.259Z,0.20
2018-03-25T05:59:18.375Z,0.30
2018-03-25T06:01:53.585Z,0.50
2018-03-25T06:04:28.902Z,0.60
2018-03-25T06:07:04.137Z,0.80
2018-03-25T06:09:39.459Z,1.00
2018-03-25T06:12:14.605Z,1.10
2018-03-25T06:14:49.840Z,1.30
2018-03-25T06:17:25.180Z,1.40
2018-03-25T06:20:00.419Z,1.60
2018-03-25T06:22:36.497Z,2.00
2018-03-25T06:25:11.843Z,1.90
2018-03-25T06:27:47.217Z,2.20
2018-03-25T06:30:22.503Z,2.40
2018-03-25T06:32:57.809Z,2.60
2018-03-25T06:35:33.164Z,2.90
2018-03-25T06:38:08.901Z,3.10
2018-03-25T06:40:44.094Z,3.20
2018-03-25T06:43:19.492Z,3.50
2018-03-25T06:45:55.429Z,3.80
2018-03-25T06:48:30.691Z,3.80
2018-03-25T06:51:06.027Z,3.90
2018-03-25T06:53:41.241Z,4.00
2018-03-25T06:56:16.634Z,4.10
2018-03-25T06:58:51.861Z,4.30
2018-03-25T07:01:27.128Z,4.60
2018-03-25T07:04:02.462Z,4.70
2018-03-25T07:06:38.558Z,5.10
2018-03-25T07:09:13.703Z,5.00
2018-03-25T07:11:49.796Z,5.60
2018-03-25T07:14:25.957Z,5.60
2018-03-25T07:17:01.312Z,5.60
2018-03-25T07:19:36.478Z,5.90
2018-03-25T07:22:11.717Z,6.20
2018-03-25T07:24:46.971Z,6.30
2018-03-25T07:27:22.451Z,6.40
2018-03-25T07:29:57.571Z,6.60
2018-03-25T07:32:32.838Z,6.90
2018-03-25T07:35:08.190Z,7.00
2018-03-25T07:37:43.756Z,7.10
2018-03-25T07:40:19.026Z,7.60
2018-03-25T07:42:54.308Z,7.90
2018-03-25T07:45:29.513Z,8.30
2018-03-25T07:48:06.005Z,8.40
2018-03-25T07:50:41.141Z,8.30
2018-03-25T07:53:16.427Z,8.60
2018-03-25T07:55:52.357Z,8.60
2018-03-25T07:58:27.631Z,8.60
2018-03-25T08:01:02.712Z,8.80
2018-03-25T08:03:39.494Z,9.30
2018-03-25T08:06:15.433Z,9.80
2018-03-25T08:08:50.777Z,9.80
2018-03-25T08:11:25.911Z,9.80
2018-03-25T08:14:01.202Z,10.00
2018-03-25T08:16:36.499Z,10.10
2018-03-25T08:19:11.735Z,10.40
2018-03-25T08:21:47.029Z,10.30
2018-03-25T08:24:22.260Z,10.40
2018-03-25T08:26:57.494Z,10.60
2018-03-25T08:29:32.848Z,10.80
2018-03-25T08:32:08.004Z,10.80
2018-03-25T08:34:43.877Z,11.30
2018-03-25T08:37:19.029Z,11.20
2018-03-25T08:39:54.246Z,11.10
2018-03-25T08:42:29.440Z,11.20
2018-03-25T08:45:04.715Z,11.30
2018-03-25T08:47:39.859Z,11.80
2018-03-25T08:50:15.339Z,12.10
2018-03-25T08:52:50.591Z,12.20
2018-03-25T08:55:25.825Z,12.40
2018-03-25T08:58:01.730Z,12.40
2018-03-25T09:00:36.974Z,12.30
2018-03-25T09:03:13.028Z,12.90
2018-03-25T09:05:48.340Z,12.80
2018-03-25T09:08:24.776Z,13.20
2018-03-25T09:11:00.027Z,13.20
2018-03-25T09:13:35.488Z,13.00
2018-03-25T09:16:10.855Z,13.10
2018-03-25T09:18:46.065Z,13.50
2018-03-25T09:21:21.336Z,13.40
2018-03-25T09:23:56.746Z,13.40
2018-03-25T09:26:32.046Z,13.60
2018-03-25T09:29:07.180Z,13.60
2018-03-25T09:31:42.464Z,13.40
2018-03-25T09:34:17.652Z,13.80
2018-03-25T09:36:52.742Z,13.80
2018-03-25T09:39:28.801Z,13.30
2018-03-25T09:42:04.012Z,13.20
2018-03-25T09:44:39.889Z,13.00
2018-03-25T09:47:15.162Z,13.00
2018-03-25T09:49:51.129Z,13.50
2018-03-25T09:52:27.068Z,13.50
2018-03-25T09:55:02.241Z,13.40
2018-03-25T09:57:37.414Z,13.60
2018-03-25T10:00:12.643Z,14.10
2018-03-25T10:02:50.542Z,14.10
2018-03-25T10:05:25.703Z,14.00
2018-03-25T10:08:00.963Z,14.60
2018-03-25T10:10:36.392Z,14.20
2018-03-25T10:13:11.840Z,14.00
2018-03-25T10:15:47.886Z,14.50
2018-03-25T10:18:22.967Z,14.50
2018-03-25T10:20:58.436Z,14.80
2018-03-25T10:23:33.574Z,15.00
2018-03-25T10:26:08.825Z,15.30
2018-03-25T10:28:44.133Z,15.40
2018-03-25T10:31:19.409Z,15.20
2018-03-25T10:33:54.513Z,15.20
2018-03-25T10:36:29.783Z,15.30
2018-03-25T10:39:05.081Z,15.80
2018-03-25T10:41:40.471Z,16.30
2018-03-25T10:44:15.710Z,16.50
2018-03-25T10:46:50.859Z,16.40
2018-03-25T10:49:26.116Z,15.90
2018-03-25T10:52:01.501Z,15.40
2018-03-25T10:54:36.833Z,15.20
2018-03-25T10:57:12.095Z,15.40
2018-03-25T10:59:47.342Z,15.10
2018-03-25T11:02:23.141Z,15.10
2018-03-25T11:04:58.501Z,15.30
2018-03-25T11:07:34.139Z,15.90
2018-03-25T11:10:09.336Z,15.50
2018-03-25T11:12:44.653Z,15.40
2018-03-25T11:15:19.840Z,15.70
2018-03-25T11:17:55.227Z,15.70
2018-03-25T11:20:30.493Z,16.20
2018-03-25T11:23:05.693Z,16.40
2018-03-25T11:25:41.629Z,16.70
2018-03-25T11:28:16.853Z,16.70
2018-03-25T11:30:52.056Z,16.70
2018-03-25T11:33:27.233Z,16.30
2018-03-25T11:36:02.567Z,15.80
2018-03-25T11:38:37.869Z,15.70
2018-03-25T11:41:13.148Z,15.80
2018-03-25T11:43:49.209Z,15.70
2018-03-25T11:46:25.480Z,15.70
2018-03-25T11:49:01.585Z,15.60
2018-03-25T11:51:36.849Z,15.70
2018-03-25T11:54:12.143Z,15.60
2018-03-25T11:56:47.406Z,16.20
2018-03-25T11:59:23.388Z,16.20
2018-03-25T12:01:58.611Z,16.10
2018-03-25T12:04:33.970Z,16.00
2018-03-25T12:07:09.275Z,16.20
2018-03-25T12:09:44.413Z,16.10
2018-03-25T12:12:20.282Z,15.70
2018-03-25T12:14:55.395Z,15.60
2018-03-25T12:17:30.768Z,15.70
2018-03-25T12:20:06.836Z,16.10
2018-03-25T12:22:42.401Z,16.00
2018-03-25T12:25:18.300Z,16.30
2018-03-25T12:27:54.247Z,16.20
2018-03-25T12:30:29.387Z,16.20
2018-03-25T12:33:04.850Z,16.20
2018-03-25T12:35:40.025Z,16.20
2018-03-25T12:38:15.492Z,16.20
2018-03-25T12:40:50.781Z,15.80
2018-03-25T12:43:25.934Z,15.70
2018-03-25T12:46:01.240Z,15.70
2018-03-25T12:48:36.789Z,16.00
2018-03-25T12:51:12.001Z,16.10
2018-03-25T12:53:47.236Z,16.40
2018-03-25T12:56:23.148Z,16.40
2018-03-25T12:58:58.428Z,16.40
2018-03-25T13:01:33.746Z,16.40
2018-03-25T13:04:09.931Z,15.70
2018-03-25T13:06:45.293Z,15.70
2018-03-25T13:09:20.845Z,15.50
2018-03-25T13:11:56.764Z,15.40
2018-03-25T13:14:32.067Z,15.40
2018-03-25T13:17:07.948Z,15.20
2018-03-25T13:19:43.937Z,15.10
2018-03-25T13:22:19.094Z,14.90
2018-03-25T13:24:55.193Z,14.70
2018-03-25T13:27:30.522Z,14.70
2018-03-25T13:30:05.719Z,15.00
2018-03-25T13:32:41.856Z,15.20
2018-03-25T13:35:17.143Z,15.20
2018-03-25T13:37:52.431Z,15.30
2018-03-25T13:40:27.687Z,15.30
2018-03-25T13:43:03.655Z,15.30
2018-03-25T13:45:39.114Z,15.30
2018-03-25T13:48:14.478Z,15.00
2018-03-25T13:50:50.466Z,15.10
2018-03-25T13:53:25.777Z,15.00
2018-03-25T13:56:01.901Z,14.60
2018-03-25T13:58:37.166Z,14.60
2018-03-25T14:01:12.285Z,14.70
2018-03-25T14:03:47.589Z,14.70
2018-03-25T14:06:22.869Z,14.90
2018-03-25T14:08:58.363Z,15.10
2018-03-25T14:11:33.790Z,15.10
2018-03-25T14:14:09.834Z,15.20
2018-03-25T14:16:45.108Z,15.20
2018-03-25T14:19:20.737Z,15.10
2018-03-25T14:21:55.910Z,14.90
2018-03-25T14:24:31.960Z,14.90
2018-03-25T14:27:07.093Z,14.80
2018-03-25T14:29:43.026Z,14.80
2018-03-25T14:32:18.161Z,14.80
2018-03-25T14:34:53.487Z,14.70
2018-03-25T14:37:29.559Z,14.70
2018-03-25T14:40:04.845Z,14.60
2018-03-25T14:42:40.205Z,14.80
2018-03-25T14:45:15.330Z,14.80
2018-03-25T14:47:50.656Z,14.80
2018-03-25T14:50:25.885Z,14.60
2018-03-25T14:53:01.962Z,14.60
2018-03-25T14:55:37.181Z,14.50
2018-03-25T14:58:12.348Z,14.40
2018-03-25T15:00:47.637Z,14.40
2018-03-25T15:03:22.958Z,14.20
2018-03-25T15:05:59.036Z,14.00
2018-03-25T15:08:34.325Z,14.00
2018-03-25T15:11:09.581Z,13.80
2018-03-25T15:13:44.814Z,13.70
2018-03-25T15:16:19.892Z,13.50
2018-03-25T15:18:55.218Z,13.40
2018-03-25T15:21:31.152Z,13.30
2018-03-25T15:24:07.031Z,13.20
2018-03-25T15:26:42.260Z,13.20
2018-03-25T15:29:17.399Z,13.20
2018-03-25T15:31:52.814Z,13.10
2018-03-25T15:34:28.225Z,13.00
2018-03-25T15:37:03.438Z,13.10
2018-03-25T15:39:39.385Z,13.00
2018-03-25T15:42:14.596Z,13.00
2018-03-25T15:44:49.900Z,13.00
2018-03-25T15:47:25.347Z,12.90
2018-03-25T15:53:07.059Z,12.80
2018-03-25T15:55:42.384Z,12.80
2018-03-25T15:58:17.702Z,12.80
2018-03-25T16:00:54.142Z,12.70
2018-03-25T16:03:29.407Z,12.70
2018-03-25T16:06:04.764Z,12.70
2018-03-25T16:08:40.108Z,12.80
2018-03-25T16:14:05.149Z,12.70
2018-03-25T16:20:32.675Z,12.60
2018-03-25T16:23:08.029Z,12.50
2018-03-25T16:25:43.342Z,12.50
2018-03-25T16:28:18.586Z,12.40
2018-03-25T16:30:53.718Z,12.40
2018-03-25T16:33:29.691Z,12.30
2018-03-25T16:36:04.888Z,12.30
2018-03-25T16:38:40.158Z,12.30
2018-03-25T16:41:16.257Z,12.20
2018-03-25T16:43:51.452Z,12.10
2018-03-25T16:46:27.383Z,12.10
2018-03-25T16:49:02.821Z,12.10
2018-03-25T16:51:37.985Z,12.00
2018-03-25T16:54:13.189Z,11.90
2018-03-25T16:56:49.111Z,11.90
2018-03-25T16:59:24.274Z,11.80
2018-03-25T17:01:59.803Z,11.80
2018-03-25T17:04:35.033Z,11.70
2018-03-25T17:07:44.615Z,11.60
2018-03-25T17:10:20.598Z,11.50
2018-03-25T17:12:55.782Z,11.50
2018-03-25T17:16:14.054Z,11.40
2018-03-25T17:18:49.363Z,11.40
2018-03-25T17:21:24.732Z,11.30
2018-03-25T17:24:01.027Z,11.10
2018-03-25T17:26:36.168Z,11.10
2018-03-25T17:29:11.493Z,11.00
2018-03-25T17:31:46.848Z,11.00
2018-03-25T17:34:22.073Z,11.00
2018-03-25T17:36:57.241Z,10.90
2018-03-25T17:39:32.522Z,10.80
2018-03-25T17:42:07.876Z,10.80
2018-03-25T17:44:43.875Z,10.60
2018-03-25T17:47:19.815Z,10.60
2018-03-25T17:49:55.739Z,10.50
2018-03-25T17:52:30.903Z,10.50
2018-03-25T17:55:06.193Z,10.40
2018-03-25T17:57:41.441Z,10.40
2018-03-25T18:00:16.717Z,10.30
2018-03-25T18:02:51.878Z,10.20
2018-03-25T18:05:27.310Z,10.20
2018-03-25T18:08:02.650Z,10.10
2018-03-25T18:10:37.826Z,10.00
2018-03-25T18:13:13.114Z,10.00
2018-03-25T18:15:48.307Z,9.90
2018-03-25T18:18:23.654Z,9.90
2018-03-25T18:20:58.922Z,9.80
2018-03-25T18:23:34.909Z,9.80
2018-03-25T18:26:10.446Z,9.80
2018-03-25T18:28:45.782Z,9.70
2018-03-25T18:31:21.784Z,9.50
2018-03-25T18:33:57.108Z,9.40
2018-03-25T18:36:32.233Z,9.40
2018-03-25T18:39:07.409Z,9.40
2018-03-25T18:41:42.798Z,9.30
2018-03-25T18:44:17.917Z,9.30
2018-03-25T18:46:53.120Z,9.20
2018-03-25T18:49:28.313Z,9.20
2018-03-25T18:52:03.808Z,9.10
2018-03-25T18:54:39.769Z,9.10
2018-03-25T18:57:15.047Z,9.00
2018-03-25T18:59:51.192Z,9.10
2018-03-25T19:02:28.166Z,9.10
2018-03-25T19:05:03.573Z,9.10
2018-03-25T19:07:38.824Z,9.00
2018-03-25T19:10:14.144Z,8.80
2018-03-25T19:12:49.393Z,8.70
2018-03-25T19:15:24.713Z,8.60
2018-03-25T19:18:00.748Z,8.50
2018-03-25T19:20:36.744Z,8.30
2018-03-25T19:23:12.057Z,8.20
2018-03-25T19:25:47.168Z,8.10
2018-03-25T19:28:22.565Z,8.10
2018-03-25T19:30:58.075Z,8.10
2018-03-25T19:33:33.357Z,8.10
2018-03-25T19:36:08.842Z,8.10
2018-03-25T19:38:44.153Z,8.00
2018-03-25T19:41:19.490Z,8.00
2018-03-25T19:43:54.734Z,7.90
2018-03-25T19:46:30.902Z,7.80
2018-03-25T19:49:06.059Z,7.80
2018-03-25T19:51:41.267Z,7.80
2018-03-25T19:54:17.354Z,7.90
2018-03-25T19:56:52.708Z,7.80
2018-03-25T19:59:28.581Z,7.80
2018-03-25T20:02:03.842Z,7.80
2018-03-25T20:04:39.183Z,7.70
2018-03-25T20:07:14.762Z,7.60
2018-03-25T20:09:49.907Z,7.60
2018-03-25T20:12:25.216Z,7.60
2018-03-25T20:15:00.388Z,7.70
2018-03-25T20:17:35.655Z,7.70
2018-03-25T20:20:11.001Z,7.70
2018-03-25T20:22:46.375Z,7.60
2018-03-25T20:25:22.349Z,7.50
2018-03-25T20:27:58.416Z,7.50
2018-03-25T20:30:33.539Z,7.40
2018-03-25T20:33:08.167Z,7.50
2018-03-25T20:35:43.323Z,7.40
2018-03-25T20:38:18.638Z,7.50
2018-03-25T20:40:54.016Z,7.40
2018-03-25T20:43:29.348Z,7.40
2018-03-25T20:46:04.668Z,7.40
2018-03-25T20:48:40.020Z,7.50
2018-03-25T20:51:23.549Z,7.50
2018-03-25T20:53:58.732Z,7.50
2018-03-25T20:56:34.565Z,7.50
2018-03-25T20:59:10.014Z,7.40
2018-03-25T21:01:46.468Z,7.50
2018-03-25T21:04:22.016Z,7.50
2018-03-25T21:06:57.352Z,7.60
2018-03-25T21:09:32.468Z,7.70
2018-03-25T21:12:07.918Z,7.80
2018-03-25T21:14:43.085Z,7.80
2018-03-25T21:17:19.545Z,7.80
2018-03-25T21:19:54.796Z,7.90
2018-03-25T21:22:30.063Z,7.90
2018-03-25T21:25:05.291Z,7.90
2018-03-25T21:27:40.535Z,8.00
2018-03-25T21:30:15.800Z,8.10
2018-03-25T21:32:50.995Z,8.10
2018-03-25T21:35:26.063Z,8.10
2018-03-25T21:38:01.459Z,8.00
2018-03-25T21:40:36.635Z,8.00
2018-03-25T21:43:11.907Z,8.10
2018-03-25T21:45:47.161Z,8.00
2018-03-25T21:48:22.410Z,8.10
2018-03-25T21:50:58.444Z,8.10
2018-03-25T21:53:33.699Z,8.10
2018-03-25T21:56:08.907Z,8.10
2018-03-25T21:58:44.080Z,8.10
2018-03-25T22:01:19.448Z,8.10
2018-03-25T22:03:55.476Z,8.10
2018-03-25T22:06:30.663Z,8.10
2018-03-25T22:09:06.670Z,8.20
2018-03-25T22:11:41.883Z,8.30
2018-03-25T22:14:17.302Z,8.20
2018-03-25T22:16:52.487Z,8.30
2018-03-25T22:19:27.691Z,8.30
2018-03-25T22:22:03.016Z,8.30
2018-03-25T22:24:38.246Z,8.40
2018-03-25T22:27:13.450Z,8.40
2018-03-25T22:29:48.510Z,8.30
2018-03-25T22:32:23.630Z,8.30
2018-03-25T22:34:58.856Z,8.30
2018-03-25T22:37:33.957Z,8.30
2018-03-25T22:40:09.052Z,8.20
2018-03-25T22:42:44.297Z,8.20
2018-03-25T22:45:19.495Z,8.20
2018-03-25T22:47:54.715Z,8.20
2018-03-25T22:50:29.903Z,8.20
2018-03-25T22:53:05.085Z,8.20
2018-03-25T22:55:40.281Z,8.20
2018-03-25T22:58:15.511Z,8.20
2018-03-25T23:00:50.870Z,8.20
2018-03-25T23:03:25.944Z,8.20
2018-03-25T23:06:01.250Z,8.20
2018-03-25T23:08:36.446Z,8.20
2018-03-25T23:11:11.949Z,8.20
2018-03-25T23:13:47.035Z,8.10
2018-03-25T23:16:22.225Z,8.10
2018-03-25T23:18:57.419Z,8.10
2018-03-25T23:21:32.604Z,8.10
2018-03-25T23:24:07.879Z,8.10
2018-03-25T23:26:43.442Z,8.10
2018-03-25T23:29:18.487Z,8.10
2018-03-25T23:31:54.361Z,8.10
2018-03-25T23:34:29.546Z,8.10
2018-03-25T23:37:05.574Z,8.10
2018-03-25T23:39:40.668Z,8.10
2018-03-25T23:42:15.856Z,8.10
2018-03-25T23:44:51.074Z,8.00
2018-03-25T23:47:26.302Z,8.00
2018-03-25T23:50:02.145Z,8.00
2018-03-25T23:52:37.894Z,8.00
2018-03-25T23:55:13.005Z,8.00
2018-03-25T23:57:48.235Z,8.00
